Hlavní strana
METAR-TAF:

METAR-TAF

Letiště :

Iaşi, Rumunsko

zeměpisná šířka: 47-10N, zeměpisná délka: 027-38E, výška: 102 m

Aktuální stav počasí

Zpráva byla vytvořena před 21 hodinami a 37 minutami, v 00:00 UTC
Západní vítr 3 kt
Teplota 21°C
Vlhkost vzduchu 73%
Tlak 1015 hPa
Viditelnost 10 km a více
Žádná oblačnost pod 1500 m, nevyskytují se cumulonimby.

METAR: LRIA 210000Z 26003KT CAVOK 21/16 Q1015

Čas: 00:37 (21:37 UTC)

Předpověď počasí

Zpráva byla vytvořena před 22 hodinami a 37 minutami, v 23:00 UTC
Předpověď platná od 21 v 00 UTC do 21 v 09 UTC
vítr z různých směrů 3 kt
Viditelnost 10 km a více
Žádná oblačnost pod 1500 m, nevyskytují se cumulonimby.

TAF: LRIA 202300Z 2100/2109 VRB03KT CAVOK

Stav a předpovědi počasí z více než 4 000 letišť (zprávy METAR a TAF).

Červené a žluté tečky na mapě představují dostupné meteorologické stanice.

Když kurzor umístíte na tečku, zobrazí se název stanice.

Pak kliknutím zobrazíte stav a předpověď počasí.

Chcete-li změnit mapu, kliknutím na zelené tlačítko se znaménkem +mapu přiblížíte, kliknutím na zelené tlačítko se znaménkem – mapu oddálíte a kliknutím na zelené šipky přejdete na sousední mapy.


METAR-TAF: